createdAt,value
2017-11-05T00:03:24.850Z,17.43
2017-11-05T00:08:25.900Z,17.57
2017-11-05T00:13:26.987Z,18.20
2017-11-05T00:18:28.805Z,19.33
2017-11-05T00:23:29.857Z,17.33
2017-11-05T00:28:30.978Z,15.70
2017-11-05T00:33:32.907Z,16.97
2017-11-05T00:38:33.965Z,15.90
2017-11-05T00:43:35.070Z,18.30
2017-11-05T00:48:36.150Z,17.07
2017-11-05T00:53:37.210Z,16.37
2017-11-05T00:58:38.274Z,18.10
2017-11-05T01:03:39.342Z,16.63
2017-11-05T01:08:40.449Z,17.67
2017-11-05T01:13:41.514Z,16.87
2017-11-05T01:18:42.584Z,15.53
2017-11-05T01:23:44.369Z,16.80
2017-11-05T01:28:46.185Z,17.20
2017-11-05T01:33:47.261Z,16.77
2017-11-05T01:38:48.351Z,16.73
2017-11-05T01:43:50.156Z,16.93
2017-11-05T01:48:51.237Z,17.43
2017-11-05T01:53:52.320Z,17.47
2017-11-05T01:58:53.380Z,17.83
2017-11-05T02:03:54.432Z,16.43
2017-11-05T02:08:55.523Z,17.30
2017-11-05T02:13:57.334Z,16.80
2017-11-05T02:18:58.392Z,16.87
2017-11-05T02:23:59.446Z,16.00
2017-11-05T02:29:00.528Z,17.17
2017-11-05T02:34:01.598Z,17.30
2017-11-05T02:39:02.713Z,16.90
2017-11-05T02:44:03.761Z,15.53
2017-11-05T02:49:05.570Z,16.00
2017-11-05T02:54:06.659Z,16.10
2017-11-05T02:59:07.729Z,16.30
2017-11-05T03:04:08.809Z,17.27
2017-11-05T03:09:10.647Z,16.27
2017-11-05T03:14:11.736Z,17.77
2017-11-05T03:19:13.518Z,17.97
2017-11-05T03:24:15.324Z,16.70
2017-11-05T03:29:16.391Z,18.83
2017-11-05T03:34:17.473Z,17.30
2017-11-05T03:39:18.533Z,16.80
2017-11-05T03:44:19.598Z,18.10
2017-11-05T03:49:20.689Z,18.00
2017-11-05T03:54:21.765Z,16.50
2017-11-05T03:59:22.816Z,18.00
2017-11-05T04:04:23.884Z,17.27
2017-11-05T04:09:24.953Z,17.00
2017-11-05T04:14:26.037Z,16.73
2017-11-05T04:19:27.117Z,16.37
2017-11-05T04:24:28.165Z,17.97
2017-11-05T04:29:29.973Z,18.27
2017-11-05T04:34:31.761Z,15.67
2017-11-05T04:39:32.857Z,17.00
2017-11-05T04:44:33.933Z,17.07
2017-11-05T04:49:35.000Z,16.30
2017-11-05T04:54:36.089Z,18.90
2017-11-05T04:59:37.194Z,15.80
2017-11-05T05:04:38.252Z,16.27
2017-11-05T05:09:39.323Z,15.70
2017-11-05T05:14:40.392Z,14.97
2017-11-05T05:19:41.460Z,16.03
2017-11-05T05:24:43.266Z,15.13
2017-11-05T05:29:44.347Z,14.73
2017-11-05T05:34:45.429Z,15.60
2017-11-05T05:39:46.509Z,15.30
2017-11-05T05:44:48.313Z,14.27
2017-11-05T05:49:49.386Z,15.57
2017-11-05T05:54:50.465Z,16.00
2017-11-05T05:59:51.529Z,15.27
2017-11-05T06:04:52.597Z,14.90
2017-11-05T06:09:53.656Z,14.37
2017-11-05T06:14:54.713Z,14.37
2017-11-05T06:19:55.773Z,17.00
2017-11-05T06:24:56.877Z,15.37
2017-11-05T06:29:57.962Z,14.50
2017-11-05T06:34:59.063Z,14.70
2017-11-05T06:40:00.130Z,15.57
2017-11-05T06:45:01.955Z,16.20
2017-11-05T06:50:03.034Z,15.23
2017-11-05T06:55:04.130Z,14.77
2017-11-05T07:00:05.952Z,14.27
2017-11-05T07:05:07.029Z,14.20
2017-11-05T07:10:08.101Z,14.87
2017-11-05T07:15:09.181Z,14.33
2017-11-05T07:20:11.001Z,15.83
2017-11-05T07:25:12.065Z,14.13
2017-11-05T07:30:13.142Z,14.37
2017-11-05T07:35:14.275Z,14.30
2017-11-05T07:40:15.350Z,15.73
2017-11-05T07:45:16.420Z,16.90
2017-11-05T07:50:17.486Z,14.50
2017-11-05T07:55:18.557Z,14.57
2017-11-05T08:00:20.354Z,13.13
2017-11-05T08:05:21.396Z,13.27
2017-11-05T08:10:23.205Z,13.57
2017-11-05T08:15:24.271Z,13.10
2017-11-05T08:20:25.338Z,13.70
2017-11-05T08:25:26.402Z,12.90
2017-11-05T08:30:27.477Z,15.30
2017-11-05T08:35:28.585Z,13.63
2017-11-05T08:40:29.672Z,13.03
2017-11-05T08:45:30.756Z,15.00
2017-11-05T08:50:31.822Z,13.90
2017-11-05T08:55:33.645Z,14.07
2017-11-05T09:00:37.734Z,13.03
2017-11-05T09:05:39.553Z,13.03
2017-11-05T09:10:40.614Z,14.30
2017-11-05T09:15:41.673Z,12.90
2017-11-05T09:20:42.782Z,14.73
2017-11-05T09:25:43.833Z,13.77
2017-11-05T09:30:45.926Z,14.00
2017-11-05T09:35:47.737Z,13.17
2017-11-05T09:40:48.797Z,14.43
2017-11-05T09:45:49.840Z,15.60
2017-11-05T09:50:51.035Z,13.13
2017-11-05T09:55:52.241Z,13.57
2017-11-05T10:00:53.490Z,14.00
2017-11-05T10:05:55.558Z,13.07
2017-11-05T10:10:56.895Z,13.97
2017-11-05T10:15:58.145Z,13.70
2017-11-05T10:21:03.109Z,14.37
2017-11-05T10:26:04.355Z,12.67
2017-11-05T10:31:05.688Z,12.40
2017-11-05T10:36:07.684Z,14.37
2017-11-05T10:41:08.923Z,13.80
2017-11-05T10:46:10.895Z,12.80
2017-11-05T10:51:12.915Z,13.33
2017-11-05T10:56:14.161Z,13.10
2017-11-05T11:01:15.584Z,12.67
2017-11-05T11:06:16.825Z,12.70
2017-11-05T11:11:18.040Z,12.93
2017-11-05T11:16:19.969Z,15.13
2017-11-05T11:21:21.193Z,13.20
2017-11-05T11:26:23.076Z,14.00
2017-11-05T11:31:24.288Z,14.50
2017-11-05T11:36:25.524Z,12.20
2017-11-05T11:41:26.718Z,12.73
2017-11-05T11:46:28.995Z,14.10
2017-11-05T11:51:30.224Z,14.90
2017-11-05T11:56:31.491Z,15.40
2017-11-05T12:01:33.726Z,14.13
2017-11-05T12:06:35.678Z,13.77
2017-11-05T12:11:36.919Z,13.07
2017-11-05T12:16:41.879Z,13.20
2017-11-05T12:21:43.104Z,13.77
2017-11-05T12:26:44.310Z,13.60
2017-11-05T12:31:46.267Z,13.57
2017-11-05T12:36:47.507Z,12.73
2017-11-05T12:41:48.711Z,13.63
2017-11-05T12:46:49.933Z,14.37
2017-11-05T12:51:51.118Z,13.00
2017-11-05T12:56:52.332Z,13.03
2017-11-05T13:01:53.552Z,13.70
2017-11-05T13:06:54.760Z,14.43
2017-11-05T13:11:56.781Z,13.37
2017-11-05T13:16:57.980Z,12.13
2017-11-05T13:21:59.213Z,12.10
2017-11-05T13:27:00.452Z,12.23
2017-11-05T13:32:01.681Z,11.50
2017-11-05T13:37:03.673Z,13.00
2017-11-05T13:42:04.902Z,12.57
2017-11-05T13:47:06.181Z,14.27
2017-11-05T13:52:07.493Z,11.83
2017-11-05T13:57:08.822Z,12.80
2017-11-05T14:02:10.113Z,12.53
2017-11-05T14:07:11.373Z,13.27
2017-11-05T14:12:12.649Z,13.10
2017-11-05T14:17:13.924Z,14.90
2017-11-05T14:22:15.399Z,14.03
2017-11-05T14:27:16.669Z,13.70
2017-11-05T14:32:17.948Z,13.97
2017-11-05T14:37:19.984Z,14.10
2017-11-05T14:42:21.344Z,16.10
2017-11-05T14:47:22.757Z,14.47
2017-11-05T14:52:24.092Z,11.30
2017-11-05T14:57:25.396Z,11.20
2017-11-05T15:02:26.770Z,4.47
2017-11-05T15:07:28.792Z,1.50
2017-11-05T15:12:30.051Z,1.40
2017-11-05T15:17:31.335Z,0.93
2017-11-05T15:22:36.364Z,0.90
2017-11-05T15:27:37.619Z,0.80
2017-11-05T15:32:38.891Z,0.87
2017-11-05T15:37:44.272Z,0.63
2017-11-05T15:42:46.586Z,0.80
2017-11-05T15:47:47.828Z,1.13
2017-11-05T15:52:49.188Z,0.90
2017-11-05T15:57:50.516Z,0.90
2017-11-05T16:02:51.852Z,1.00
2017-11-05T16:07:53.182Z,1.00
2017-11-05T16:12:54.487Z,1.20
2017-11-05T16:17:55.866Z,1.20
2017-11-05T16:22:57.139Z,1.17
2017-11-05T16:27:58.568Z,1.60
2017-11-05T16:32:59.857Z,1.00
2017-11-05T16:38:01.102Z,1.23
2017-11-05T16:43:03.213Z,1.30
2017-11-05T16:48:04.499Z,1.20
2017-11-05T16:53:05.744Z,0.93
2017-11-05T16:58:07.049Z,0.73
2017-11-05T17:03:08.431Z,0.70
2017-11-05T17:08:09.851Z,1.10
2017-11-05T17:13:11.112Z,1.10
2017-11-05T17:18:12.419Z,1.03
2017-11-05T17:23:13.565Z,0.97
2017-11-05T17:28:14.646Z,1.07
2017-11-05T17:33:15.726Z,1.50
2017-11-05T17:38:17.610Z,1.33
2017-11-05T17:43:18.685Z,1.80
2017-11-05T17:48:19.744Z,1.77
2017-11-05T17:53:20.806Z,1.70
2017-11-05T17:58:25.270Z,1.70
2017-11-05T18:03:26.395Z,2.07
2017-11-05T18:08:34.206Z,1.90
2017-11-05T18:13:36.035Z,2.00
2017-11-05T18:18:43.786Z,2.10
2017-11-05T18:23:45.586Z,1.90
2017-11-05T18:28:46.732Z,2.20
2017-11-05T18:33:48.541Z,2.30
2017-11-05T18:38:49.622Z,2.60
2017-11-05T18:43:50.695Z,2.30
2017-11-05T18:48:55.122Z,2.47
2017-11-05T18:53:56.183Z,3.00
2017-11-05T18:58:58.768Z,2.30
2017-11-05T19:04:03.337Z,2.07
2017-11-05T19:09:05.209Z,2.47
2017-11-05T19:14:09.765Z,2.57
2017-11-05T19:19:17.667Z,2.33
2017-11-05T19:24:34.936Z,2.50
2017-11-05T19:29:36.030Z,2.60
2017-11-05T19:34:37.845Z,2.83
2017-11-05T19:39:58.287Z,2.90
2017-11-05T19:45:00.397Z,2.90
2017-11-05T19:50:17.169Z,3.00
2017-11-05T20:06:36.425Z,2.80
2017-11-05T20:11:37.525Z,3.57
2017-11-05T20:16:38.643Z,2.80
2017-11-05T20:21:39.702Z,2.00
2017-11-05T20:26:40.833Z,2.40
2017-11-05T20:31:41.953Z,2.33
2017-11-05T20:36:43.124Z,2.23
2017-11-05T20:41:44.849Z,2.87
2017-11-05T20:46:45.929Z,1.70
2017-11-05T20:51:47.069Z,1.70
2017-11-05T20:56:48.259Z,1.60
2017-11-05T21:01:57.387Z,1.77
2017-11-05T21:06:59.273Z,1.90
2017-11-05T21:12:01.134Z,1.80
2017-11-05T21:17:03.049Z,1.30
2017-11-05T21:22:04.159Z,1.70
2017-11-05T21:27:05.850Z,2.00
2017-11-05T21:32:07.770Z,1.40
2017-11-05T21:37:08.842Z,2.60
2017-11-05T21:42:09.913Z,1.70
2017-11-05T21:47:10.978Z,1.50
2017-11-05T21:52:12.097Z,1.70
2017-11-05T21:57:13.228Z,1.90
2017-11-05T22:02:15.041Z,1.50
2017-11-05T22:07:16.308Z,1.57
2017-11-05T22:12:17.374Z,1.50
2017-11-05T22:17:18.837Z,1.70
2017-11-05T22:22:19.964Z,1.57
2017-11-05T22:27:21.894Z,1.37
2017-11-05T22:32:22.959Z,1.57
2017-11-05T22:37:24.023Z,1.50
2017-11-05T22:42:25.095Z,1.43
2017-11-05T22:47:27.720Z,2.00
2017-11-05T22:52:28.847Z,1.70
2017-11-05T22:57:29.910Z,2.27
2017-11-05T23:02:31.703Z,2.20
2017-11-05T23:07:32.799Z,2.70
2017-11-05T23:12:33.834Z,3.07
2017-11-05T23:17:34.900Z,2.70
2017-11-05T23:22:36.010Z,2.90
2017-11-05T23:27:37.105Z,3.10
2017-11-05T23:32:38.189Z,2.87
2017-11-05T23:37:39.261Z,3.30
2017-11-05T23:42:40.351Z,3.27
2017-11-05T23:47:41.529Z,2.90
2017-11-05T23:52:43.354Z,3.70
2017-11-05T23:57:44.425Z,4.03
